Time;durP1;ratioP1;P1;durP2;ratioP2;P2;SDS_P1;SDS_P2;PMS_P1;PMS_P2;Temp;Humidity;BMP_temperature;BMP_pressure;BME280_temperature;BME280_humidity;BME280_pressure;Samples;Min_cycle;Max_cycle;Signal;HPM_P1;HPM_P2
2022/01/24 00:01:49;;;;;;;36.78;20.73;;;-2.60;99.90;;;;;;4895882;29;20045;-76
2022/01/24 00:04:15;;;;;;;32.30;22.08;;;-2.60;99.90;;;;;;4897076;29;20101;-77
2022/01/24 00:06:41;;;;;;;37.65;21.95;;;-2.60;99.90;;;;;;4896191;29;20040;-76
2022/01/24 00:09:08;;;;;;;32.63;20.67;;;-2.70;99.90;;;;;;4896673;29;20093;-77
2022/01/24 00:27:16;;;;;;;26.25;14.60;;;-2.50;99.90;;;;;;4899870;29;20071;-77
2022/01/24 00:29:42;;;;;;;24.58;13.82;;;-2.50;99.90;;;;;;4955222;29;20023;-78
2022/01/24 00:32:08;;;;;;;26.85;14.77;;;-2.60;99.90;;;;;;4955404;29;20126;-77
2022/01/24 00:34:34;;;;;;;28.83;15.00;;;-2.60;99.90;;;;;;4955543;29;20059;-74
2022/01/24 00:37:00;;;;;;;25.95;13.68;;;-2.60;99.90;;;;;;4955738;29;20027;-77
2022/01/24 00:39:27;;;;;;;27.20;14.35;;;-2.60;99.90;;;;;;4955547;29;20023;-77
2022/01/24 00:44:43;;;;;;;29.98;15.60;;;-2.50;99.90;;;;;;4955593;29;20042;-77
2022/01/24 00:48:26;;;;;;;29.88;16.63;;;-2.50;99.90;;;;;;4955375;29;20027;-72
2022/01/24 00:55:19;;;;;;;24.15;14.70;;;-2.50;99.90;;;;;;4954718;28;20106;-75
2022/01/24 00:57:45;;;;;;;29.23;14.65;;;-2.60;99.90;;;;;;4955068;29;20102;-76
2022/01/24 01:00:11;;;;;;;27.20;14.85;;;-2.60;99.90;;;;;;4954467;29;20066;-78
2022/01/24 01:02:38;;;;;;;28.67;16.30;;;-2.70;99.90;;;;;;4955064;29;20121;-79
2022/01/24 01:05:22;;;;;;;26.42;14.93;;;-2.70;99.90;;;;;;4955146;29;20031;-75
2022/01/24 01:07:56;;;;;;;25.08;14.88;;;-2.80;99.90;;;;;;4955005;29;20048;-77
2022/01/24 01:18:08;;;;;;;29.23;15.02;;;-2.80;99.90;;;;;;4955196;29;20122;-77
2022/01/24 01:18:44;;;;;;;28.40;15.38;;;-3.00;99.90;;;;;;4954964;29;20430;-77
2022/01/24 01:21:13;;;;;;;26.75;14.82;;;-3.00;99.90;;;;;;4955171;29;20576;-77
2022/01/24 01:23:49;;;;;;;27.83;16.02;;;-3.00;99.90;;;;;;4954679;29;20090;-78
2022/01/24 01:28:56;;;;;;;23.55;14.57;;;-3.20;99.90;;;;;;4954892;29;20492;-77
2022/01/24 01:31:54;;;;;;;31.43;16.60;;;-3.20;99.90;;;;;;4954652;29;20433;-76
2022/01/24 01:57:52;;;;;;;26.45;14.70;;;-3.50;99.90;;;;;;4876426;29;20037;-76
2022/01/24 02:00:19;;;;;;;30.88;16.58;;;-3.50;99.90;;;;;;4875695;29;20061;-76
2022/01/24 02:02:44;;;;;;;32.55;17.23;;;-3.50;99.90;;;;;;4876453;29;20052;-77
2022/01/24 02:05:11;;;;;;;31.50;18.38;;;-3.50;99.90;;;;;;4876538;29;20443;-76
2022/01/24 02:07:47;;;;;;;28.35;16.42;;;-3.50;99.90;;;;;;4876230;29;20077;-77
2022/01/24 02:10:14;;;;;;;28.27;15.20;;;-3.50;99.90;;;;;;4876683;29;20116;-76
2022/01/24 02:12:40;;;;;;;27.20;14.32;;;-3.60;99.90;;;;;;4890257;29;20035;-75
2022/01/24 02:15:07;;;;;;;26.95;14.23;;;-3.60;99.90;;;;;;4954251;29;20038;-75
2022/01/24 02:17:51;;;;;;;27.27;14.45;;;-3.60;99.90;;;;;;4954123;29;20058;-77
2022/01/24 02:23:16;;;;;;;32.40;16.90;;;-3.60;99.90;;;;;;4952433;29;20386;-75
2022/01/24 02:25:38;;;;;;;24.60;13.05;;;-3.60;99.90;;;;;;4953808;29;20055;-75
2022/01/24 02:28:05;;;;;;;24.55;13.15;;;-3.60;99.90;;;;;;4954026;29;20478;-77
2022/01/24 02:30:58;;;;;;;25.60;13.75;;;-3.70;99.90;;;;;;4953731;29;20504;-77
2022/01/24 02:33:24;;;;;;;25.70;12.07;;;-3.70;99.90;;;;;;4954122;29;20504;-77
2022/01/24 02:35:51;;;;;;;31.50;15.05;;;-3.80;99.90;;;;;;4953996;29;20039;-77
2022/01/24 02:40:43;;;;;;;30.38;15.55;;;-3.80;99.90;;;;;;4953821;29;20089;-75
2022/01/24 02:48:21;;;;;;;28.60;15.57;;;-3.80;99.90;;;;;;4954151;29;20035;-77
2022/01/24 02:48:48;;;;;;;24.10;12.88;;;-3.80;99.90;;;;;;4952762;29;20385;-77
2022/01/24 02:54:27;;;;;;;29.15;14.80;;;-3.90;99.90;;;;;;4913332;29;20028;-75
2022/01/24 02:56:53;;;;;;;;;;;-4.00;99.90;;;;;;4914014;29;20059;-74
2022/01/24 02:59:18;;;;;;;30.45;15.32;;;-4.10;99.90;;;;;;4913179;29;20047;-78
2022/01/24 03:01:45;;;;;;;31.23;15.85;;;-4.10;99.90;;;;;;4913321;29;20037;-77
2022/01/24 03:04:12;;;;;;;32.28;16.27;;;-4.20;99.90;;;;;;4913589;29;20041;-76
2022/01/24 03:06:38;;;;;;;24.85;11.75;;;-4.20;99.90;;;;;;4913360;29;20040;-78
2022/01/24 03:09:06;;;;;;;31.00;15.93;;;-4.20;99.90;;;;;;4913383;29;20032;-79
2022/01/24 03:12:11;;;;;;;27.55;14.68;;;-4.30;99.90;;;;;;4913302;29;20036;-79
2022/01/24 03:14:28;;;;;;;26.67;15.45;;;-4.20;99.90;;;;;;4909631;29;20420;-79
2022/01/24 03:16:55;;;;;;;30.70;13.98;;;-4.20;99.90;;;;;;4913615;29;20063;-77
2022/01/24 03:19:21;;;;;;;25.65;14.02;;;-4.20;99.90;;;;;;4913834;29;20134;-77
2022/01/24 03:21:48;;;;;;;21.70;11.88;;;-4.20;99.90;;;;;;4916691;29;20745;-77
2022/01/24 03:24:15;;;;;;;19.63;9.98;;;-4.20;99.90;;;;;;4923152;29;20051;-77
2022/01/24 03:26:41;;;;;;;30.00;14.95;;;-4.10;99.90;;;;;;4956970;29;20063;-78
2022/01/24 03:29:08;;;;;;;22.77;12.23;;;-4.20;99.90;;;;;;4956730;29;20032;-76
2022/01/24 03:31:35;;;;;;;27.98;15.27;;;-4.10;99.90;;;;;;4956821;29;20023;-78
2022/01/24 03:34:03;;;;;;;25.52;13.52;;;-4.10;99.90;;;;;;4956467;29;20406;-76
2022/01/24 03:36:29;;;;;;;36.25;17.75;;;-4.10;99.90;;;;;;4956788;29;20027;-77
2022/01/24 03:38:55;;;;;;;28.90;14.63;;;-4.10;99.90;;;;;;4939376;29;20442;-75
2022/01/24 03:41:21;;;;;;;35.50;16.83;;;-4.10;99.90;;;;;;4956519;29;20027;-75
2022/01/24 03:43:47;;;;;;;30.15;15.40;;;-4.10;99.90;;;;;;4956580;29;20049;-76
2022/01/24 03:48:46;;;;;;;92.05;47.13;;;-4.30;99.90;;;;;;4956565;29;20070;-76
2022/01/24 03:51:12;;;;;;;70.57;39.37;;;-4.40;99.90;;;;;;4956609;29;20105;-75
2022/01/24 03:53:39;;;;;;;60.50;30.75;;;-4.50;99.90;;;;;;4956800;29;20027;-77
2022/01/24 03:56:06;;;;;;;47.95;26.83;;;-4.50;99.90;;;;;;4956628;29;20034;-78
2022/01/24 03:58:33;;;;;;;48.80;25.38;;;-4.60;99.90;;;;;;4955065;29;20052;-77
2022/01/24 04:01:00;;;;;;;35.13;20.52;;;-4.50;99.90;;;;;;4956281;29;20470;-77
2022/01/24 04:03:27;;;;;;;49.42;24.92;;;-4.40;99.90;;;;;;4956193;29;20031;-78
2022/01/24 04:05:56;;;;;;;35.47;19.27;;;-4.40;99.90;;;;;;4956211;29;20410;-77
2022/01/24 04:08:22;;;;;;;46.30;24.38;;;-4.40;99.90;;;;;;4956424;29;20110;-77
2022/01/24 04:10:53;;;;;;;44.58;24.50;;;-4.30;99.90;;;;;;4956348;29;20529;-77
2022/01/24 04:13:37;;;;;;;75.93;31.65;;;-4.30;99.90;;;;;;4956218;29;20029;-75
2022/01/24 04:23:47;;;;;;;43.17;21.90;;;-4.90;99.90;;;;;;4955566;29;20047;-77
2022/01/24 04:26:13;;;;;;;40.65;20.42;;;-5.00;99.90;;;;;;4955857;29;20104;-76
2022/01/24 04:28:40;;;;;;;43.20;22.25;;;-5.10;99.90;;;;;;4955615;29;20106;-78
2022/01/24 04:31:06;;;;;;;50.58;23.15;;;-5.10;99.90;;;;;;4953262;28;20050;-77
2022/01/24 04:33:32;;;;;;;50.30;25.50;;;-5.00;99.90;;;;;;4955416;29;20027;-77
2022/01/24 04:35:58;;;;;;;47.33;23.33;;;-5.00;99.90;;;;;;4955655;29;20085;-75
2022/01/24 04:38:24;;;;;;;50.47;23.88;;;-4.90;99.90;;;;;;4954788;29;20023;-76
2022/01/24 04:40:56;;;;;;;42.75;22.40;;;-4.90;99.90;;;;;;4955200;29;20035;-76
2022/01/24 04:43:33;;;;;;;44.15;24.15;;;-5.00;99.90;;;;;;4955458;29;20098;-73
2022/01/24 04:51:56;;;;;;;52.45;22.38;;;-5.20;99.90;;;;;;4955143;29;20063;-75
2022/01/24 04:57:04;;;;;;;41.13;24.02;;;-5.20;99.90;;;;;;4955082;29;20058;-71
2022/01/24 04:59:31;;;;;;;51.78;26.48;;;-5.10;99.90;;;;;;4954593;29;20051;-75
2022/01/24 05:01:57;;;;;;;57.55;30.98;;;-5.10;99.90;;;;;;4954626;29;20030;-75
2022/01/24 05:04:24;;;;;;;54.10;30.40;;;-5.20;99.90;;;;;;4954881;29;20401;-73
2022/01/24 05:06:50;;;;;;;47.20;27.52;;;-5.20;99.90;;;;;;4955063;29;20030;-74
2022/01/24 05:09:18;;;;;;;43.33;21.15;;;-5.20;99.90;;;;;;4954464;29;20474;-74
2022/01/24 05:12:10;;;;;;;40.67;18.90;;;-5.30;99.90;;;;;;4955035;29;20090;-75
2022/01/24 05:25:32;;;;;;;31.70;18.42;;;-5.20;99.90;;;;;;4954597;29;20461;-77
2022/01/24 05:27:58;;;;;;;31.05;18.13;;;-5.10;99.90;;;;;;4954502;29;20082;-75
2022/01/24 05:30:26;;;;;;;31.90;18.60;;;-5.10;99.90;;;;;;4954133;29;20031;-74
2022/01/24 05:32:52;;;;;;;45.97;22.48;;;-5.20;99.90;;;;;;4954245;29;20031;-75
2022/01/24 05:35:18;;;;;;;40.67;21.75;;;-5.30;99.90;;;;;;4953942;29;20473;-75
2022/01/24 05:37:44;;;;;;;40.22;20.05;;;-5.30;99.90;;;;;;4954341;29;20043;-75
2022/01/24 05:40:11;;;;;;;38.88;22.52;;;-5.40;99.90;;;;;;4953884;29;20027;-75
2022/01/24 05:42:37;;;;;;;50.50;26.88;;;-5.40;99.90;;;;;;4952536;28;20386;-76
2022/01/24 05:45:05;;;;;;;41.40;21.15;;;-5.30;99.90;;;;;;4937375;29;20367;-76
2022/01/24 05:47:31;;;;;;;38.33;18.30;;;-5.30;99.90;;;;;;4957707;29;20146;-74
2022/01/24 05:49:57;;;;;;;38.00;18.20;;;-5.20;99.90;;;;;;4954015;29;20114;-75
2022/01/24 05:52:26;;;;;;;39.03;21.75;;;-5.20;99.90;;;;;;4954289;29;20026;-76
2022/01/24 05:54:52;;;;;;;30.15;14.40;;;-5.30;99.90;;;;;;4952879;29;20059;-76
2022/01/24 05:57:20;;;;;;;28.00;13.55;;;-5.30;99.90;;;;;;4966717;29;20024;-75
2022/01/24 05:59:47;;;;;;;24.05;14.20;;;-5.40;99.90;;;;;;4958413;29;20073;-75
2022/01/24 06:02:13;;;;;;;25.45;13.23;;;-5.40;99.90;;;;;;4953868;29;20046;-74
2022/01/24 06:04:42;;;;;;;25.45;12.65;;;-5.40;99.90;;;;;;4966328;29;20036;-76
2022/01/24 06:07:09;;;;;;;28.05;14.57;;;-5.50;99.90;;;;;;4959125;29;20235;-75
2022/01/24 06:09:35;;;;;;;28.50;14.85;;;-5.40;99.90;;;;;;4953990;29;20545;-72
2022/01/24 06:12:01;;;;;;;29.95;14.77;;;-5.40;99.90;;;;;;4953821;29;20062;-74
2022/01/24 06:14:27;;;;;;;25.30;12.02;;;-5.40;99.90;;;;;;4954241;29;20077;-75
2022/01/24 06:16:53;;;;;;;22.25;12.07;;;-5.40;99.90;;;;;;4953785;29;20031;-75
2022/01/24 06:19:19;;;;;;;23.42;11.77;;;-5.40;99.90;;;;;;4954274;29;20489;-76
2022/01/24 06:21:45;;;;;;;24.10;12.52;;;-5.40;99.90;;;;;;4936864;29;20019;-75
2022/01/24 06:24:12;;;;;;;24.20;13.40;;;-5.40;99.90;;;;;;4964008;29;20047;-75
2022/01/24 06:26:43;;;;;;;37.90;17.52;;;-5.30;99.90;;;;;;4952987;29;20027;-75
2022/01/24 06:29:13;;;;;;;29.05;15.50;;;-5.30;99.90;;;;;;4954850;29;20031;-75
2022/01/24 06:31:44;;;;;;;30.23;15.30;;;-5.20;99.90;;;;;;4963554;29;20461;-76
2022/01/24 06:34:11;;;;;;;32.15;16.08;;;-5.10;99.90;;;;;;4962289;29;20059;-76
2022/01/24 06:36:38;;;;;;;36.58;17.50;;;-5.10;99.90;;;;;;4955786;29;20473;-75
2022/01/24 06:39:05;;;;;;;42.50;21.20;;;-5.20;99.90;;;;;;4955245;29;20113;-75
2022/01/24 06:41:34;;;;;;;45.97;22.67;;;-5.10;99.90;;;;;;4954012;29;20053;-75
2022/01/24 06:44:04;;;;;;;47.60;20.73;;;-5.10;99.90;;;;;;4953776;29;20082;-75
2022/01/24 06:46:30;;;;;;;60.83;27.10;;;-5.00;99.90;;;;;;4953659;29;20024;-75
2022/01/24 06:48:58;;;;;;;61.30;27.73;;;-4.90;99.90;;;;;;4965555;29;20031;-75
2022/01/24 06:51:27;;;;;;;49.00;24.02;;;-4.90;99.90;;;;;;4937861;29;20019;-74
2022/01/24 06:53:55;;;;;;;41.15;20.48;;;-4.70;99.90;;;;;;4954356;28;20030;-75
2022/01/24 06:56:21;;;;;;;43.13;20.27;;;-4.60;99.90;;;;;;4940197;29;20031;-74
2022/01/24 06:58:47;;;;;;;38.25;20.27;;;-4.50;99.90;;;;;;4968192;29;20105;-76
2022/01/24 07:01:14;;;;;;;50.00;27.98;;;-4.40;99.90;;;;;;4956866;29;20031;-75
2022/01/24 07:03:39;;;;;;;60.30;30.67;;;-4.20;99.90;;;;;;4957593;29;20455;-75
2022/01/24 07:06:05;;;;;;;38.17;23.08;;;-4.20;99.90;;;;;;4957539;29;20394;-73
2022/01/24 07:08:31;;;;;;;40.13;21.48;;;-4.00;99.90;;;;;;4957276;29;20027;-75
2022/01/24 07:10:59;;;;;;;31.20;18.30;;;-3.90;99.90;;;;;;4960291;29;20057;-76
2022/01/24 07:13:24;;;;;;;33.53;19.30;;;-3.70;99.90;;;;;;4962088;29;20187;-75
2022/01/24 07:15:56;;;;;;;31.42;18.80;;;-3.50;99.90;;;;;;4957022;29;20515;-76
2022/01/24 07:21:01;;;;;;;35.08;18.35;;;-3.20;99.90;;;;;;4957106;29;20478;-76
2022/01/24 07:23:28;;;;;;;31.23;18.50;;;-3.10;99.90;;;;;;4939834;29;20039;-75
2022/01/24 07:25:55;;;;;;;27.50;15.88;;;-2.80;99.90;;;;;;4971300;29;20031;-75
2022/01/24 07:28:21;;;;;;;28.95;17.13;;;-2.90;99.60;;;;;;4961042;29;20066;-73
2022/01/24 07:30:48;;;;;;;24.85;13.38;;;-3.00;98.90;;;;;;4956860;29;20027;-75
2022/01/24 07:33:14;;;;;;;26.85;14.25;;;-3.00;99.10;;;;;;4955561;29;20503;-74
2022/01/24 07:35:43;;;;;;;23.15;13.25;;;-2.90;97.90;;;;;;4969754;29;20019;-76
2022/01/24 07:38:11;;;;;;;18.67;11.68;;;-3.00;97.90;;;;;;4959746;29;20118;-75
2022/01/24 07:40:39;;;;;;;24.58;13.20;;;-3.00;97.10;;;;;;4956765;29;20510;-74
2022/01/24 07:43:15;;;;;;;20.30;11.38;;;-2.90;98.10;;;;;;4956780;29;20042;-74
2022/01/24 07:45:47;;;;;;;21.48;12.57;;;-2.90;98.20;;;;;;4964494;29;20023;-76
2022/01/24 07:48:15;;;;;;;20.25;10.65;;;-2.90;97.30;;;;;;4966086;29;20030;-77
2022/01/24 07:50:46;;;;;;;31.05;16.35;;;-2.90;96.60;;;;;;4967164;29;20027;-76
2022/01/24 07:53:15;;;;;;;;;;;-2.80;97.60;;;;;;4966146;29;20389;-76
2022/01/24 07:55:41;;;;;;;20.45;9.90;;;-2.70;97.90;;;;;;4956562;29;19917;-74
2022/01/24 07:58:08;;;;;;;25.92;12.48;;;-2.70;97.30;;;;;;4937847;29;20031;-75
2022/01/24 08:00:34;;;;;;;20.48;10.38;;;-2.50;95.90;;;;;;4954237;29;20039;-75
2022/01/24 08:03:00;;;;;;;21.83;9.60;;;-2.60;95.50;;;;;;4955877;29;20114;-75
2022/01/24 08:05:28;;;;;;;19.58;9.27;;;-2.40;97.70;;;;;;4954379;28;20533;-72
2022/01/24 08:07:54;;;;;;;16.75;8.80;;;-2.40;93.50;;;;;;4955683;29;20478;-71
2022/01/24 08:10:19;;;;;;;19.35;9.02;;;-2.40;93.20;;;;;;4955803;29;20067;-72
2022/01/24 08:12:46;;;;;;;18.60;7.88;;;-2.40;95.20;;;;;;4955588;29;20486;-74
2022/01/24 08:15:16;;;;;;;16.52;9.02;;;-2.20;94.30;;;;;;4955639;29;20034;-71
2022/01/24 08:17:44;;;;;;;15.95;8.85;;;-2.00;93.20;;;;;;4936854;29;20030;-74
2022/01/24 08:20:12;;;;;;;21.60;10.75;;;-2.00;91.90;;;;;;4952040;29;20090;-74
2022/01/24 08:22:38;;;;;;;23.65;12.65;;;-1.90;91.30;;;;;;4955077;29;20062;-73
2022/01/24 08:25:05;;;;;;;32.33;17.63;;;-2.10;91.90;;;;;;4955453;29;20036;-74
2022/01/24 08:27:34;;;;;;;30.30;14.57;;;-2.10;92.00;;;;;;4955595;29;20102;-75
2022/01/24 08:30:03;;;;;;;22.45;13.27;;;-2.00;92.60;;;;;;4955479;29;20062;-74
2022/01/24 08:32:29;;;;;;;30.75;15.38;;;-2.00;92.00;;;;;;4955637;29;20035;-76
2022/01/24 08:34:56;;;;;;;27.45;15.10;;;-1.80;91.80;;;;;;4955911;29;20031;-75
2022/01/24 08:37:25;;;;;;;25.25;14.00;;;-1.80;92.30;;;;;;4955570;29;20062;-76
2022/01/24 08:39:51;;;;;;;25.42;15.32;;;-1.70;90.80;;;;;;4938234;29;20494;-75
2022/01/24 08:42:29;;;;;;;32.25;15.45;;;-1.50;92.10;;;;;;4967130;29;20027;-77
2022/01/24 08:47:35;;;;;;;20.08;10.20;;;-1.40;89.30;;;;;;4955627;29;20071;-76
2022/01/24 08:50:04;;;;;;;22.52;10.88;;;-1.70;89.80;;;;;;4941876;29;20475;-74
2022/01/24 08:52:31;;;;;;;24.33;12.18;;;-1.50;89.60;;;;;;4953115;29;20023;-75
2022/01/24 08:54:57;;;;;;;28.70;14.80;;;-1.70;90.00;;;;;;4952827;29;20422;-75
2022/01/24 08:57:27;;;;;;;23.08;12.18;;;-1.50;88.80;;;;;;4966756;29;20019;-76
2022/01/24 08:59:54;;;;;;;17.10;9.77;;;-1.60;89.10;;;;;;4956643;29;20053;-76
2022/01/24 09:02:21;;;;;;;19.33;10.10;;;-1.40;88.00;;;;;;4955172;29;20029;-76
2022/01/24 09:04:47;;;;;;;20.27;9.50;;;-1.50;88.70;;;;;;4954598;29;20035;-71
2022/01/24 09:07:15;;;;;;;20.00;10.35;;;-1.00;90.00;;;;;;4955431;29;20051;-76
2022/01/24 09:09:41;;;;;;;20.00;9.50;;;-1.10;88.10;;;;;;4953218;29;20031;-75
2022/01/24 09:12:11;;;;;;;28.60;12.27;;;-1.10;86.00;;;;;;4954824;29;20517;-76
2022/01/24 09:14:47;;;;;;;19.55;10.93;;;-1.20;85.20;;;;;;4954760;29;20426;-76
2022/01/24 09:17:17;;;;;;;24.17;12.85;;;-1.10;85.60;;;;;;4953342;28;20046;-76
2022/01/24 09:19:44;;;;;;;29.10;13.85;;;-1.20;86.50;;;;;;4937295;29;20071;-75
2022/01/24 09:22:10;;;;;;;24.25;13.82;;;-1.20;90.10;;;;;;4955229;29;20023;-76
2022/01/24 09:24:37;;;;;;;21.65;9.55;;;-1.30;89.20;;;;;;4955637;29;20050;-76
2022/01/24 09:27:04;;;;;;;17.35;9.07;;;-1.10;85.40;;;;;;4954436;29;20031;-75
2022/01/24 09:29:30;;;;;;;23.40;12.10;;;-0.90;83.90;;;;;;4937616;29;20086;-75
2022/01/24 09:31:56;;;;;;;30.88;14.60;;;-0.70;85.30;;;;;;4955643;29;20087;-75
2022/01/24 09:34:23;;;;;;;24.10;12.07;;;-0.50;84.80;;;;;;4954353;29;20032;-75
2022/01/24 09:36:50;;;;;;;21.05;11.05;;;-0.50;86.10;;;;;;4954401;29;20026;-76
2022/01/24 09:39:27;;;;;;;22.65;11.95;;;-0.30;83.90;;;;;;4954914;29;20531;-76
2022/01/24 09:41:55;;;;;;;23.23;11.82;;;-0.20;81.10;;;;;;4954473;29;20098;-77
2022/01/24 09:44:26;;;;;;;20.35;10.02;;;-0.30;81.40;;;;;;4960950;29;20069;-76
2022/01/24 09:46:53;;;;;;;18.55;10.02;;;-0.30;80.40;;;;;;4943068;29;20027;-76
2022/01/24 09:49:19;;;;;;;20.33;10.50;;;-0.50;79.60;;;;;;4953083;29;20027;-75
2022/01/24 09:51:45;;;;;;;18.73;10.55;;;-0.20;80.80;;;;;;4959263;29;20589;-76
2022/01/24 09:54:14;;;;;;;27.00;15.10;;;-0.40;80.70;;;;;;4954754;29;20026;-76
2022/01/24 09:56:40;;;;;;;24.77;13.50;;;-0.40;81.70;;;;;;4953178;29;20419;-76
2022/01/24 09:59:07;;;;;;;19.13;10.00;;;-0.30;81.40;;;;;;4955505;29;20106;-74
2022/01/24 10:01:33;;;;;;;18.23;9.73;;;-0.30;82.00;;;;;;4954349;29;20035;-76
2022/01/24 10:04:18;;;;;;;18.70;11.07;;;-0.60;81.20;;;;;;4954220;29;20035;-73
2022/01/24 10:07:11;;;;;;;25.23;11.93;;;-0.50;81.30;;;;;;4954255;29;20059;-77
2022/01/24 10:09:45;;;;;;;21.95;10.95;;;-0.50;81.60;;;;;;4955499;29;20051;-75
2022/01/24 10:12:24;;;;;;;25.00;12.15;;;-0.50;80.30;;;;;;4962359;29;20110;-77
2022/01/24 10:17:40;;;;;;;21.45;10.68;;;-0.20;80.10;;;;;;4955116;29;20027;-76
2022/01/24 10:20:33;;;;;;;21.15;10.35;;;-0.50;79.90;;;;;;4968392;29;20023;-77
2022/01/24 10:23:04;;;;;;;18.70;9.98;;;-0.70;79.10;;;;;;4947179;29;20071;-77
2022/01/24 10:25:59;;;;;;;19.85;9.38;;;-0.60;78.30;;;;;;4951929;29;20100;-77
2022/01/24 10:28:32;;;;;;;18.35;9.98;;;-0.60;80.00;;;;;;4966985;28;20023;-75
2022/01/24 10:31:11;;;;;;;21.05;10.23;;;-0.40;79.70;;;;;;4954667;29;20035;-76
2022/01/24 10:34:02;;;;;;;19.05;9.93;;;-0.40;78.60;;;;;;4964563;29;20030;-77
2022/01/24 10:36:46;;;;;;;18.67;10.32;;;-0.50;78.50;;;;;;4957949;29;20055;-75
2022/01/24 10:39:33;;;;;;;22.10;10.73;;;-0.40;78.20;;;;;;4957119;29;20058;-76
2022/01/24 10:44:50;;;;;;;38.22;19.92;;;-0.40;77.20;;;;;;4957651;29;20050;-77
2022/01/24 10:47:23;;;;;;;20.50;11.30;;;-0.30;76.90;;;;;;4968911;29;20477;-76
2022/01/24 10:49:52;;;;;;;19.30;10.68;;;-0.40;74.60;;;;;;4972398;29;20051;-77
2022/01/24 10:52:20;;;;;;;21.20;10.95;;;-0.60;74.60;;;;;;4959612;29;20449;-76
2022/01/24 10:54:52;;;;;;;22.55;12.20;;;-0.60;74.70;;;;;;4957278;29;20667;-77
2022/01/24 10:57:26;;;;;;;21.13;11.82;;;-0.70;75.00;;;;;;4955983;29;20035;-75
2022/01/24 11:00:06;;;;;;;21.75;10.95;;;-0.80;76.00;;;;;;4954640;29;20121;-76
2022/01/24 11:02:40;;;;;;;20.92;11.07;;;-0.80;73.00;;;;;;4957382;29;20039;-75
2022/01/24 11:05:16;;;;;;;19.55;10.40;;;-0.80;72.40;;;;;;4957593;29;20086;-76
2022/01/24 11:07:57;;;;;;;27.05;13.80;;;-0.90;73.40;;;;;;4957221;29;20033;-76
2022/01/24 11:10:26;;;;;;;22.38;12.70;;;-0.90;73.70;;;;;;4940032;29;20443;-76
2022/01/24 11:12:52;;;;;;;26.75;13.57;;;-0.90;74.40;;;;;;4961701;29;20466;-76
2022/01/24 11:15:24;;;;;;;25.90;13.73;;;-1.00;74.70;;;;;;4957084;29;20035;-76
2022/01/24 11:17:51;;;;;;;22.08;11.50;;;-0.90;75.30;;;;;;4957541;29;20374;-76
2022/01/24 11:20:18;;;;;;;20.55;10.55;;;-0.80;74.30;;;;;;4957047;29;20023;-76
2022/01/24 11:22:50;;;;;;;26.48;13.77;;;-0.70;73.20;;;;;;4965615;29;20039;-76
2022/01/24 11:25:16;;;;;;;24.25;12.05;;;-0.60;74.90;;;;;;4938915;29;20027;-77
2022/01/24 11:27:50;;;;;;;31.80;16.27;;;-0.50;73.50;;;;;;4951019;29;20042;-76
2022/01/24 11:30:22;;;;;;;32.63;16.08;;;-0.40;74.70;;;;;;4944377;29;20024;-76
2022/01/24 11:33:02;;;;;;;21.65;13.15;;;-0.40;72.70;;;;;;4936181;29;20038;-74
2022/01/24 11:35:51;;;;;;;23.23;12.27;;;-0.50;72.00;;;;;;4937998;29;20035;-76
2022/01/24 11:38:36;;;;;;;23.30;11.30;;;-0.40;72.30;;;;;;4936908;29;20367;-75
2022/01/24 11:41:06;;;;;;;21.52;12.63;;;-0.60;69.80;;;;;;4936880;29;20057;-76
2022/01/24 11:43:38;;;;;;;18.80;10.07;;;-0.50;71.10;;;;;;4937314;29;20050;-75
2022/01/24 11:46:40;;;;;;;21.25;11.93;;;-0.40;70.10;;;;;;4920925;29;20039;-76
2022/01/24 11:49:14;;;;;;;18.13;9.50;;;-0.40;71.80;;;;;;4951578;29;20027;-76
2022/01/24 11:51:42;;;;;;;20.13;10.52;;;-0.40;71.60;;;;;;4937582;29;20032;-75
2022/01/24 11:57:38;;;;;;;19.23;9.43;;;-0.30;71.60;;;;;;4936706;29;20044;-76
2022/01/24 12:00:06;;;;;;;23.33;11.82;;;-0.30;71.60;;;;;;4946824;29;20052;-76
2022/01/24 12:02:47;;;;;;;22.92;12.32;;;-0.10;74.50;;;;;;4930272;29;20032;-75
2022/01/24 12:05:20;;;;;;;18.08;10.05;;;-0.10;74.40;;;;;;4939285;29;20034;-75
2022/01/24 12:07:46;;;;;;;20.85;10.05;;;-0.10;71.50;;;;;;4936751;29;20605;-75
2022/01/24 12:10:34;;;;;;;23.95;10.43;;;-0.10;71.40;;;;;;4937222;29;20111;-77
2022/01/24 12:13:08;;;;;;;26.25;14.20;;;-0.10;71.80;;;;;;4937024;29;20470;-76
2022/01/24 12:15:37;;;;;;;21.67;11.02;;;0.00;73.40;;;;;;4937080;29;20479;-76
2022/01/24 12:18:26;;;;;;;20.05;10.80;;;-0.20;71.50;;;;;;4937134;29;20023;-76
2022/01/24 12:20:57;;;;;;;24.17;12.18;;;-0.10;72.20;;;;;;4935826;29;20031;-76
2022/01/24 12:23:27;;;;;;;23.92;12.20;;;0.00;70.00;;;;;;4936378;29;20113;-76
2022/01/24 12:26:00;;;;;;;23.85;11.13;;;0.00;70.30;;;;;;4935867;29;20016;-76
2022/01/24 12:28:33;;;;;;;23.27;10.90;;;0.00;71.90;;;;;;4936873;29;20028;-76
2022/01/24 12:31:06;;;;;;;25.20;13.77;;;-0.10;66.70;;;;;;4936623;29;20032;-77
2022/01/24 12:33:39;;;;;;;22.23;11.70;;;-0.10;70.40;;;;;;4936658;29;20043;-76
2022/01/24 12:36:11;;;;;;;26.00;13.18;;;-0.20;69.40;;;;;;4935166;29;20032;-75
2022/01/24 12:38:44;;;;;;;18.75;9.05;;;-0.20;69.70;;;;;;4936323;29;20079;-74
2022/01/24 12:41:21;;;;;;;27.40;13.35;;;-0.30;69.40;;;;;;4935931;29;20027;-75
2022/01/24 12:46:38;;;;;;;20.67;11.55;;;-0.20;68.60;;;;;;4895707;29;20036;-76
2022/01/24 12:49:06;;;;;;;26.63;13.05;;;-0.10;68.40;;;;;;4897716;29;20044;-75
2022/01/24 12:51:37;;;;;;;19.90;9.73;;;-0.10;69.00;;;;;;4906863;29;20033;-75
2022/01/24 12:54:05;;;;;;;22.58;10.77;;;-0.20;68.50;;;;;;4905991;29;20048;-76
2022/01/24 12:56:33;;;;;;;22.83;12.40;;;-0.10;68.70;;;;;;4897088;29;20036;-75
2022/01/24 12:59:00;;;;;;;20.83;10.40;;;-0.10;68.50;;;;;;4896523;29;20124;-76
2022/01/24 13:01:26;;;;;;;28.30;13.88;;;-0.10;68.80;;;;;;4896070;29;20048;-75
2022/01/24 13:03:52;;;;;;;22.60;12.35;;;-0.10;68.60;;;;;;4896265;29;20040;-75
2022/01/24 13:06:21;;;;;;;27.98;13.02;;;-0.10;69.30;;;;;;4896617;29;20116;-75
2022/01/24 13:08:54;;;;;;;24.10;13.95;;;-0.10;68.30;;;;;;4895469;29;20033;-75
2022/01/24 13:11:22;;;;;;;21.58;12.18;;;-0.10;68.80;;;;;;4905541;29;20115;-76
2022/01/24 13:14:25;;;;;;;22.25;11.00;;;-0.10;68.00;;;;;;4897850;29;20432;-76
2022/01/24 13:25:15;;;;;;;29.60;14.55;;;-0.20;69.80;;;;;;4856675;29;20030;-75
2022/01/24 13:27:46;;;;;;;21.27;11.18;;;-0.20;69.60;;;;;;4862726;29;20045;-76
2022/01/24 13:30:35;;;;;;;23.55;11.45;;;-0.20;69.00;;;;;;4877599;29;20132;-76
2022/01/24 13:33:07;;;;;;;29.48;14.68;;;-0.10;70.10;;;;;;4873395;29;20053;-76
2022/01/24 13:35:35;;;;;;;24.25;13.45;;;-0.10;71.60;;;;;;4873887;29;20032;-75
2022/01/24 13:38:04;;;;;;;35.55;18.70;;;-0.20;71.10;;;;;;4890494;29;20041;-75
2022/01/24 13:41:02;;;;;;;31.52;15.43;;;-0.20;71.60;;;;;;4864576;29;20045;-74
2022/01/24 13:43:40;;;;;;;25.52;13.45;;;-0.30;72.00;;;;;;4875261;29;20507;-74
2022/01/24 13:46:32;;;;;;;25.25;13.68;;;-0.40;71.50;;;;;;4876663;29;20038;-75
2022/01/24 13:49:02;;;;;;;25.38;12.90;;;-0.40;70.60;;;;;;4876287;29;20097;-75
2022/01/24 13:51:47;;;;;;;22.73;11.57;;;-0.60;70.60;;;;;;4875396;29;20037;-75
2022/01/24 13:54:28;;;;;;;20.92;11.10;;;-0.60;70.50;;;;;;4949134;29;20046;-73
2022/01/24 13:57:00;;;;;;;24.35;11.90;;;-0.70;71.20;;;;;;4953695;29;20023;-74
2022/01/24 13:59:26;;;;;;;28.38;13.68;;;-0.70;71.40;;;;;;4953329;29;20066;-75
2022/01/24 14:01:59;;;;;;;24.95;12.85;;;-0.70;73.10;;;;;;4953582;29;20039;-76
2022/01/24 14:04:31;;;;;;;28.17;15.15;;;-0.60;72.80;;;;;;4952579;29;20031;-76
2022/01/24 14:07:01;;;;;;;29.77;15.35;;;-0.70;73.50;;;;;;4953289;29;20429;-76
2022/01/24 14:09:35;;;;;;;24.83;13.48;;;-0.60;72.80;;;;;;4954085;29;20027;-75
2022/01/24 14:12:03;;;;;;;21.23;11.25;;;-0.60;72.60;;;;;;4953149;29;20470;-76
2022/01/24 14:14:40;;;;;;;23.10;13.85;;;-0.80;71.00;;;;;;4952554;29;20027;-76
2022/01/24 14:19:44;;;;;;;21.58;10.93;;;-0.70;72.90;;;;;;4953296;29;20032;-76
2022/01/24 14:22:15;;;;;;;24.92;12.85;;;-0.90;70.50;;;;;;4953519;29;20023;-75
2022/01/24 14:25:03;;;;;;;27.52;15.40;;;-0.70;70.90;;;;;;4959746;29;20050;-75
2022/01/24 14:27:48;;;;;;;36.65;16.75;;;-0.80;71.40;;;;;;4965936;29;20023;-76
2022/01/24 14:30:26;;;;;;;29.10;15.85;;;-0.90;71.00;;;;;;4953329;29;20039;-76
2022/01/24 14:33:12;;;;;;;28.63;16.10;;;-0.90;71.40;;;;;;4953712;29;20433;-73
2022/01/24 14:35:59;;;;;;;27.85;13.90;;;-1.00;72.70;;;;;;4954848;29;20042;-74
2022/01/24 14:38:57;;;;;;;27.48;12.80;;;-1.00;71.80;;;;;;4951850;29;20042;-70
2022/01/24 14:41:45;;;;;;;27.15;15.07;;;-0.90;72.30;;;;;;4944550;29;20031;-74
2022/01/24 14:46:59;;;;;;;23.30;13.95;;;-1.00;72.40;;;;;;4953865;29;20058;-73
2022/01/24 14:49:28;;;;;;;30.25;16.98;;;-1.00;71.50;;;;;;4953146;29;20023;-73
2022/01/24 14:51:59;;;;;;;30.00;15.63;;;-1.00;71.60;;;;;;4953746;29;20035;-75
2022/01/24 14:54:28;;;;;;;29.63;15.55;;;-1.10;71.70;;;;;;4953456;29;20062;-72